Time;durP1;ratioP1;P1;durP2;ratioP2;P2;SDS_P1;SDS_P2;PMS_P1;PMS_P2;Temp;Humidity;BMP_temperature;BMP_pressure;BME280_temperature;BME280_humidity;BME280_pressure;Samples;Min_cycle;Max_cycle;Signal;HPM_P1;HPM_P2
2021/09/21 00:01:26;;;;;;;2.25;0.80;;;;;;;;;;5032121;28;20552;-82
2021/09/21 00:03:53;;;;;;;1.80;0.80;;;;;;;;;;5033854;28;20038;-82
2021/09/21 00:06:19;;;;;;;2.25;0.80;;;;;;;;;;5027916;28;20080;-82
2021/09/21 00:08:46;;;;;;;1.52;0.80;;;;;;;;;;5053170;28;20038;-82
2021/09/21 00:11:13;;;;;;;2.53;1.00;;;;;;;;;;5015266;28;20486;-82
2021/09/21 00:13:40;;;;;;;0.77;0.77;;;;;;;;;;5030365;28;20544;-82
2021/09/21 00:16:07;;;;;;;5.00;0.90;;;;;;;;;;5032162;28;20033;-82
2021/09/21 00:18:33;;;;;;;1.70;0.80;;;;;;;;;;5042440;28;20759;-82
2021/09/21 00:21:01;;;;;;;1.17;0.75;;;;;;;;;;5047109;28;20095;-82
2021/09/21 00:23:28;;;;;;;4.72;1.30;;;;;;;;;;5033453;28;20072;-82
2021/09/21 00:25:54;;;;;;;3.42;0.80;;;;;;;;;;5030451;28;20466;-82
2021/09/21 00:28:21;;;;;;;1.88;0.90;;;;;;;;;;5033270;28;20038;-82
2021/09/21 00:30:50;;;;;;;1.00;0.90;;;;;;;;;;5022836;28;20129;-82
2021/09/21 00:33:18;;;;;;;3.25;0.90;;;;;;;;;;5028496;28;20038;-82
2021/09/21 00:35:46;;;;;;;1.98;0.90;;;;;;;;;;5030309;28;20107;-82
2021/09/21 00:38:13;;;;;;;1.80;0.90;;;;;;;;;;5027330;28;20076;-82
2021/09/21 00:40:41;;;;;;;3.38;0.80;;;;;;;;;;5029932;28;20553;-82
2021/09/21 00:43:08;;;;;;;4.75;0.90;;;;;;;;;;5022112;28;20510;-82
2021/09/21 00:45:35;;;;;;;2.58;1.23;;;;;;;;;;5042136;28;20449;-82
2021/09/21 00:48:02;;;;;;;6.18;1.17;;;;;;;;;;5028292;28;20081;-82
2021/09/21 00:50:29;;;;;;;2.15;0.80;;;;;;;;;;5032763;28;20124;-82
2021/09/21 00:52:58;;;;;;;2.00;0.80;;;;;;;;;;5030886;28;20103;-82
2021/09/21 00:55:25;;;;;;;3.58;1.00;;;;;;;;;;5032291;28;20593;-82
2021/09/21 00:57:52;;;;;;;2.15;0.82;;;;;;;;;;5031120;28;20379;-82
2021/09/21 01:00:20;;;;;;;2.88;0.90;;;;;;;;;;5015552;28;20084;-82
2021/09/21 01:02:47;;;;;;;2.40;0.90;;;;;;;;;;5032735;28;20041;-82
2021/09/21 01:05:14;;;;;;;3.17;1.00;;;;;;;;;;5029411;28;20057;-82
2021/09/21 01:07:41;;;;;;;3.00;1.65;;;;;;;;;;5044463;28;20080;-82
2021/09/21 01:10:13;;;;;;;1.00;0.90;;;;;;;;;;5030862;28;20033;-82
2021/09/21 01:12:40;;;;;;;2.25;0.90;;;;;;;;;;5032375;28;20045;-82
2021/09/21 01:15:07;;;;;;;4.05;1.02;;;;;;;;;;5030540;28;20041;-82
2021/09/21 01:17:34;;;;;;;1.70;0.90;;;;;;;;;;5059824;28;20042;-82
2021/09/21 01:20:02;;;;;;;1.75;1.10;;;;;;;;;;5062617;28;20045;-82
2021/09/21 01:22:29;;;;;;;1.08;1.00;;;;;;;;;;5029790;28;20476;-82
2021/09/21 01:24:55;;;;;;;2.38;0.90;;;;;;;;;;5032182;28;20049;-82
2021/09/21 01:27:22;;;;;;;1.92;1.05;;;;;;;;;;5031262;28;20058;-82
2021/09/21 01:29:49;;;;;;;3.05;1.00;;;;;;;;;;5029770;28;20057;-82
2021/09/21 01:32:19;;;;;;;2.45;0.98;;;;;;;;;;5031164;28;20069;-82
2021/09/21 01:34:46;;;;;;;1.45;1.30;;;;;;;;;;5030357;28;20091;-82
2021/09/21 01:37:13;;;;;;;4.03;0.98;;;;;;;;;;5014669;28;20115;-82
2021/09/21 01:39:41;;;;;;;2.03;1.00;;;;;;;;;;5030982;28;20585;-82
2021/09/21 01:42:07;;;;;;;2.60;1.00;;;;;;;;;;5029459;28;20545;-82
2021/09/21 01:44:34;;;;;;;2.95;1.10;;;;;;;;;;5014979;28;20125;-82
2021/09/21 01:47:04;;;;;;;1.95;0.90;;;;;;;;;;5014005;28;20045;-82
2021/09/21 01:52:21;;;;;;;2.55;0.85;;;;;;;;;;5029162;28;20065;-82
2021/09/21 02:00:12;;;;;;;1.50;1.10;;;;;;;;;;5032669;28;20072;-82
2021/09/21 02:02:38;;;;;;;2.30;1.05;;;;;;;;;;5028288;28;20053;-82
2021/09/21 02:05:06;;;;;;;2.05;0.90;;;;;;;;;;5031263;28;20049;-82
2021/09/21 02:07:33;;;;;;;1.05;0.88;;;;;;;;;;5029751;28;20053;-82
2021/09/21 02:10:01;;;;;;;3.22;1.02;;;;;;;;;;5031800;28;20084;-82
2021/09/21 02:12:28;;;;;;;1.67;0.80;;;;;;;;;;5029700;28;20053;-82
2021/09/21 02:14:59;;;;;;;4.43;1.45;;;;;;;;;;5060079;28;20060;-82
2021/09/21 02:17:26;;;;;;;0.80;0.80;;;;;;;;;;5045622;28;20054;-82
2021/09/21 02:19:53;;;;;;;3.60;0.90;;;;;;;;;;5030408;28;20057;-82
2021/09/21 02:22:20;;;;;;;1.20;1.02;;;;;;;;;;5030703;28;20479;-82
2021/09/21 02:24:46;;;;;;;1.25;1.20;;;;;;;;;;5030748;28;20045;-82
2021/09/21 02:27:13;;;;;;;5.38;0.90;;;;;;;;;;5060636;28;20136;-82
2021/09/21 02:29:40;;;;;;;3.60;1.10;;;;;;;;;;5028761;28;20474;-82
2021/09/21 02:32:07;;;;;;;2.47;1.63;;;;;;;;;;5031124;28;20045;-82
2021/09/21 02:34:33;;;;;;;1.80;0.90;;;;;;;;;;5062524;28;20073;-82
2021/09/21 02:37:00;;;;;;;0.90;0.90;;;;;;;;;;5063445;28;20064;-82
2021/09/21 02:39:27;;;;;;;1.10;1.10;;;;;;;;;;5030679;28;20060;-82
2021/09/21 02:41:53;;;;;;;0.95;0.95;;;;;;;;;;5046621;28;20072;-82
2021/09/21 02:44:20;;;;;;;0.93;0.90;;;;;;;;;;5029715;28;20068;-82
2021/09/21 02:46:47;;;;;;;1.38;1.33;;;;;;;;;;5030395;28;20037;-82
2021/09/21 02:49:14;;;;;;;1.20;0.90;;;;;;;;;;5030114;28;20065;-82
2021/09/21 02:51:40;;;;;;;3.80;1.05;;;;;;;;;;5046159;28;20038;-82
2021/09/21 02:54:07;;;;;;;2.60;1.00;;;;;;;;;;5030383;28;20084;-82
2021/09/21 02:56:34;;;;;;;2.00;1.20;;;;;;;;;;5045567;28;20057;-82
2021/09/21 02:59:00;;;;;;;1.55;0.95;;;;;;;;;;5028435;28;20056;-82
2021/09/21 03:01:27;;;;;;;3.33;0.90;;;;;;;;;;5014558;28;20033;-82
2021/09/21 03:03:59;;;;;;;1.75;1.00;;;;;;;;;;5022185;28;20041;-82
2021/09/21 03:06:30;;;;;;;1.02;1.00;;;;;;;;;;5024953;28;20077;-82
2021/09/21 03:09:35;;;;;;;2.67;1.00;;;;;;;;;;5028454;28;20399;-82
2021/09/21 03:11:46;;;;;;;9.65;1.23;;;;;;;;;;5029684;28;20077;-82
2021/09/21 03:19:26;;;;;;;1.02;1.00;;;;;;;;;;5026617;28;20041;-82
2021/09/21 03:21:53;;;;;;;1.52;1.10;;;;;;;;;;5028730;28;20565;-82
2021/09/21 03:24:21;;;;;;;3.97;1.20;;;;;;;;;;5030163;28;20447;-82
2021/09/21 03:26:47;;;;;;;2.28;1.00;;;;;;;;;;5043983;28;20045;-82
2021/09/21 03:29:14;;;;;;;3.22;1.00;;;;;;;;;;5030512;28;20439;-82
2021/09/21 03:31:41;;;;;;;5.53;1.00;;;;;;;;;;5049406;28;20068;-82
2021/09/21 03:34:08;;;;;;;1.85;1.75;;;;;;;;;;5033775;28;20042;-82
2021/09/21 03:36:34;;;;;;;16.98;1.25;;;;;;;;;;5024116;28;20116;-82
2021/09/21 03:39:01;;;;;;;16.17;1.88;;;;;;;;;;5033244;28;20116;-82
2021/09/21 03:41:28;;;;;;;7.57;1.60;;;;;;;;;;5032660;28;20037;-82
2021/09/21 03:43:55;;;;;;;41.90;2.80;;;;;;;;;;5033043;28;20613;-82
2021/09/21 03:46:22;;;;;;;74.85;3.65;;;;;;;;;;5033102;28;20053;-82
2021/09/21 03:48:48;;;;;;;31.08;1.83;;;;;;;;;;5034124;28;20099;-82
2021/09/21 03:51:15;;;;;;;45.20;1.75;;;;;;;;;;5031503;28;20538;-81
2021/09/21 03:53:42;;;;;;;100.20;4.20;;;;;;;;;;5033277;28;20097;-82
2021/09/21 03:56:09;;;;;;;56.85;2.55;;;;;;;;;;5033405;28;20037;-82
2021/09/21 03:58:35;;;;;;;2.15;1.10;;;;;;;;;;5034044;28;20053;-82
2021/09/21 04:01:02;;;;;;;176.40;6.63;;;;;;;;;;5033591;28;20068;-81
2021/09/21 04:03:30;;;;;;;123.70;4.97;;;;;;;;;;5032386;28;20041;-82
2021/09/21 04:05:56;;;;;;;0.90;0.90;;;;;;;;;;5031400;28;20033;-82
2021/09/21 04:08:23;;;;;;;0.80;0.80;;;;;;;;;;5032657;28;20107;-82
2021/09/21 04:10:50;;;;;;;2.58;1.00;;;;;;;;;;5053557;28;20045;-82
2021/09/21 04:13:17;;;;;;;197.00;7.97;;;;;;;;;;5033738;28;20046;-82
2021/09/21 04:15:44;;;;;;;263.70;11.10;;;;;;;;;;5032050;28;20441;-82
2021/09/21 04:18:10;;;;;;;95.75;3.38;;;;;;;;;;5029286;28;20124;-82
2021/09/21 04:20:37;;;;;;;126.05;4.95;;;;;;;;;;5032710;28;20041;-82
2021/09/21 04:23:04;;;;;;;77.35;3.03;;;;;;;;;;5029201;28;20045;-82
2021/09/21 04:25:31;;;;;;;40.22;1.92;;;;;;;;;;5031771;28;20069;-82
2021/09/21 04:27:58;;;;;;;85.93;3.53;;;;;;;;;;5030485;28;20061;-82
2021/09/21 04:30:27;;;;;;;100.97;3.67;;;;;;;;;;5032167;28;20654;-82
2021/09/21 04:32:54;;;;;;;63.70;2.42;;;;;;;;;;5032100;28;20034;-82
2021/09/21 04:35:20;;;;;;;54.03;3.05;;;;;;;;;;5031255;28;20087;-82
2021/09/21 04:37:47;;;;;;;77.80;2.33;;;;;;;;;;5030987;28;20034;-82
2021/09/21 04:40:15;;;;;;;161.20;8.27;;;;;;;;;;5031682;28;20061;-82
2021/09/21 04:42:41;;;;;;;20.63;1.52;;;;;;;;;;5031528;28;20053;-82
2021/09/21 04:45:08;;;;;;;16.50;1.30;;;;;;;;;;5031496;28;20083;-82
2021/09/21 04:47:35;;;;;;;217.93;9.98;;;;;;;;;;5044609;28;20069;-82
2021/09/21 04:50:04;;;;;;;121.13;4.82;;;;;;;;;;5030997;28;20485;-82
2021/09/21 04:52:30;;;;;;;4.53;1.00;;;;;;;;;;5032607;28;20038;-82
2021/09/21 04:54:57;;;;;;;125.82;4.75;;;;;;;;;;5030744;28;20107;-82
2021/09/21 04:57:24;;;;;;;55.08;2.08;;;;;;;;;;5031295;28;20030;-81
2021/09/21 04:59:51;;;;;;;73.85;3.13;;;;;;;;;;5032465;28;20073;-82
2021/09/21 05:02:17;;;;;;;81.25;2.95;;;;;;;;;;5031428;28;20041;-82
2021/09/21 05:04:44;;;;;;;60.58;3.15;;;;;;;;;;5031785;28;20033;-82
2021/09/21 05:07:11;;;;;;;87.35;4.53;;;;;;;;;;5030584;28;20440;-82
2021/09/21 05:09:38;;;;;;;123.38;5.40;;;;;;;;;;5019684;28;20055;-82
2021/09/21 05:12:05;;;;;;;68.20;3.25;;;;;;;;;;5045921;28;20033;-82
2021/09/21 05:14:32;;;;;;;89.40;3.75;;;;;;;;;;5016430;28;20044;-82
2021/09/21 05:16:59;;;;;;;103.00;5.32;;;;;;;;;;5030604;28;20057;-82
2021/09/21 05:19:26;;;;;;;99.68;3.88;;;;;;;;;;5031318;28;20068;-82
2021/09/21 05:21:53;;;;;;;101.00;3.53;;;;;;;;;;5030717;28;20092;-82
2021/09/21 05:24:20;;;;;;;49.25;1.88;;;;;;;;;;5059712;28;20041;-81
2021/09/21 05:26:47;;;;;;;66.65;2.10;;;;;;;;;;5044979;28;20041;-81
2021/09/21 05:29:14;;;;;;;108.10;3.90;;;;;;;;;;5028774;28;20498;-81
2021/09/21 05:31:41;;;;;;;152.30;5.72;;;;;;;;;;5029759;28;20561;-81
2021/09/21 05:34:07;;;;;;;141.38;5.43;;;;;;;;;;5033549;28;20046;-82
2021/09/21 05:36:34;;;;;;;178.23;8.48;;;;;;;;;;5030693;28;20048;-81
2021/09/21 05:39:01;;;;;;;13.35;1.20;;;;;;;;;;5028443;28;20366;-81
2021/09/21 05:41:28;;;;;;;0.90;0.90;;;;;;;;;;5025752;28;20089;-81
2021/09/21 05:43:54;;;;;;;109.65;4.32;;;;;;;;;;5020902;28;20111;-81
2021/09/21 05:46:22;;;;;;;225.32;9.60;;;;;;;;;;5011856;28;20073;-81
2021/09/21 05:48:50;;;;;;;154.32;7.10;;;;;;;;;;5029647;28;20045;-81
2021/09/21 05:51:17;;;;;;;120.90;5.15;;;;;;;;;;5030079;28;20121;-81
2021/09/21 05:53:43;;;;;;;83.78;3.53;;;;;;;;;;5029585;28;20041;-81
2021/09/21 05:56:10;;;;;;;278.17;14.00;;;;;;;;;;5027880;28;20115;-81
2021/09/21 05:58:37;;;;;;;130.98;5.38;;;;;;;;;;5012613;28;20049;-81
2021/09/21 06:01:04;;;;;;;200.82;9.07;;;;;;;;;;5030099;28;20041;-81
2021/09/21 06:03:31;;;;;;;41.90;1.88;;;;;;;;;;5029663;28;20048;-81
2021/09/21 06:05:58;;;;;;;30.77;1.33;;;;;;;;;;5029613;28;20077;-81
2021/09/21 06:08:25;;;;;;;79.43;2.95;;;;;;;;;;5041325;28;20041;-81
2021/09/21 06:10:53;;;;;;;245.13;11.25;;;;;;;;;;5028303;28;20041;-81
2021/09/21 06:13:19;;;;;;;207.80;10.70;;;;;;;;;;5040700;28;20108;-81
2021/09/21 06:15:47;;;;;;;245.75;10.88;;;;;;;;;;5020073;28;20067;-81
2021/09/21 06:18:14;;;;;;;214.68;10.50;;;;;;;;;;5021422;28;20088;-81
2021/09/21 06:20:41;;;;;;;139.68;5.15;;;;;;;;;;5026092;28;20116;-81
2021/09/21 06:23:08;;;;;;;68.25;2.22;;;;;;;;;;5028578;28;20092;-81
2021/09/21 06:25:36;;;;;;;211.48;8.30;;;;;;;;;;5024799;28;20045;-81
2021/09/21 06:28:03;;;;;;;57.78;1.88;;;;;;;;;;5024265;28;20053;-81
2021/09/21 06:30:29;;;;;;;510.48;23.23;;;;;;;;;;5015968;28;20104;-81
2021/09/21 06:32:56;;;;;;;249.20;8.95;;;;;;;;;;5038330;28;20046;-81
2021/09/21 06:35:23;;;;;;;51.47;1.35;;;;;;;;;;5027737;28;20033;-81
2021/09/21 06:37:50;;;;;;;34.78;1.48;;;;;;;;;;5029443;28;20076;-81
2021/09/21 06:40:17;;;;;;;9.27;0.80;;;;;;;;;;5023530;28;20039;-81
2021/09/21 06:42:44;;;;;;;44.40;2.08;;;;;;;;;;5028076;28;20049;-81
2021/09/21 06:45:12;;;;;;;351.50;14.02;;;;;;;;;;5026079;28;20485;-81
2021/09/21 06:47:39;;;;;;;25.35;1.30;;;;;;;;;;5042718;28;20088;-81
2021/09/21 06:50:06;;;;;;;173.52;8.23;;;;;;;;;;5021650;28;20113;-81
2021/09/21 06:52:33;;;;;;;176.68;5.95;;;;;;;;;;5025256;28;20045;-81
2021/09/21 06:55:00;;;;;;;87.30;3.78;;;;;;;;;;5028333;28;20045;-81
2021/09/21 06:57:27;;;;;;;143.95;5.45;;;;;;;;;;5028566;28;20038;-81
2021/09/21 06:59:56;;;;;;;91.50;3.45;;;;;;;;;;5054674;28;20052;-81
2021/09/21 07:02:26;;;;;;;125.70;5.15;;;;;;;;;;5027429;28;20052;-81
2021/09/21 07:04:53;;;;;;;314.10;14.82;;;;;;;;;;5029312;28;20034;-81
2021/09/21 07:07:20;;;;;;;249.23;10.68;;;;;;;;;;5018880;28;20053;-81
2021/09/21 07:09:46;;;;;;;169.15;7.57;;;;;;;;;;5032837;28;20113;-81
2021/09/21 07:12:13;;;;;;;346.50;14.27;;;;;;;;;;5064505;28;20029;-81
2021/09/21 07:14:40;;;;;;;12.00;1.48;;;;;;;;;;5033152;28;20069;-81
2021/09/21 07:17:07;;;;;;;6.95;1.13;;;;;;;;;;5047347;28;20030;-81
2021/09/21 07:19:33;;;;;;;67.40;3.25;;;;;;;;;;5026053;28;20045;-81
2021/09/21 07:22:00;;;;;;;4.15;0.95;;;;;;;;;;5028642;28;20580;-81
2021/09/21 07:24:27;;;;;;;65.03;2.95;;;;;;;;;;5022207;28;20041;-81
2021/09/21 07:26:53;;;;;;;4.88;1.13;;;;;;;;;;5033634;28;20037;-81
2021/09/21 07:29:20;;;;;;;0.93;0.93;;;;;;;;;;5029980;28;20437;-81
2021/09/21 07:31:48;;;;;;;5.05;1.00;;;;;;;;;;5031452;28;20065;-81
2021/09/21 07:34:15;;;;;;;19.77;1.25;;;;;;;;;;5028475;28;20042;-81
2021/09/21 07:36:45;;;;;;;1.70;0.88;;;;;;;;;;5019432;28;20395;-81
2021/09/21 07:39:13;;;;;;;0.90;0.90;;;;;;;;;;5030718;28;20104;-81
2021/09/21 07:41:40;;;;;;;3.47;0.95;;;;;;;;;;5029321;28;20512;-81
2021/09/21 07:44:07;;;;;;;0.93;0.93;;;;;;;;;;5031474;28;20077;-81
2021/09/21 07:46:33;;;;;;;2.25;1.00;;;;;;;;;;5032292;28;20446;-81
2021/09/21 07:49:00;;;;;;;1.48;0.90;;;;;;;;;;5031612;28;20095;-81
2021/09/21 07:51:27;;;;;;;3.75;0.90;;;;;;;;;;5018725;28;20134;-81
2021/09/21 07:53:54;;;;;;;2.15;0.80;;;;;;;;;;5042473;28;20037;-81
2021/09/21 07:56:21;;;;;;;4.75;1.05;;;;;;;;;;5031186;28;20485;-81
2021/09/21 07:58:48;;;;;;;1.45;0.90;;;;;;;;;;5027380;28;20508;-81
2021/09/21 08:01:14;;;;;;;0.80;0.80;;;;;;;;;;5031753;28;20712;-81
2021/09/21 08:03:42;;;;;;;0.90;0.90;;;;;;;;;;5030858;28;20041;-81
2021/09/21 08:06:10;;;;;;;2.95;1.08;;;;;;;;;;5060634;28;20124;-81
2021/09/21 08:08:39;;;;;;;2.58;0.80;;;;;;;;;;5031569;28;20059;-81
2021/09/21 08:11:08;;;;;;;4.55;0.90;;;;;;;;;;5031473;28;20045;-81
2021/09/21 08:13:35;;;;;;;0.85;0.85;;;;;;;;;;5031253;28;20099;-81
2021/09/21 08:16:01;;;;;;;1.08;1.08;;;;;;;;;;5027465;28;20045;-81
2021/09/21 08:18:28;;;;;;;2.05;0.90;;;;;;;;;;5029728;28;20065;-81
2021/09/21 08:20:55;;;;;;;1.42;0.90;;;;;;;;;;5045564;28;20041;-81
2021/09/21 08:23:22;;;;;;;4.32;1.00;;;;;;;;;;5030353;28;20176;-81
2021/09/21 08:25:49;;;;;;;1.85;0.90;;;;;;;;;;5029667;28;20045;-81
2021/09/21 08:28:15;;;;;;;1.88;0.90;;;;;;;;;;5031733;28;20037;-81
2021/09/21 08:30:42;;;;;;;1.88;0.98;;;;;;;;;;5031227;28;20037;-81
2021/09/21 08:33:09;;;;;;;0.90;0.90;;;;;;;;;;5032351;28;20654;-81
2021/09/21 08:35:36;;;;;;;0.90;0.90;;;;;;;;;;5030328;28;20370;-81
2021/09/21 08:38:03;;;;;;;0.90;0.90;;;;;;;;;;5030441;28;20045;-81
2021/09/21 08:40:30;;;;;;;2.70;1.52;;;;;;;;;;5031052;28;20698;-81
2021/09/21 08:42:57;;;;;;;0.90;0.90;;;;;;;;;;5031428;28;20061;-81
2021/09/21 08:45:25;;;;;;;4.97;1.15;;;;;;;;;;5030072;28;20045;-81
2021/09/21 08:47:52;;;;;;;0.80;0.80;;;;;;;;;;5017790;28;20092;-81
2021/09/21 08:50:19;;;;;;;1.20;0.80;;;;;;;;;;5041797;28;20128;-81
2021/09/21 08:52:46;;;;;;;3.80;0.90;;;;;;;;;;5028433;28;20042;-81
2021/09/21 08:55:14;;;;;;;0.80;0.80;;;;;;;;;;5031007;28;20045;-81
2021/09/21 08:57:41;;;;;;;0.80;0.80;;;;;;;;;;5029575;28;20470;-81
2021/09/21 09:00:11;;;;;;;0.80;0.80;;;;;;;;;;5029653;28;20069;-81
2021/09/21 09:02:38;;;;;;;2.08;1.00;;;;;;;;;;5043987;28;20071;-81
2021/09/21 09:05:11;;;;;;;1.15;0.90;;;;;;;;;;5045602;28;20133;-81
2021/09/21 09:07:47;;;;;;;0.75;0.73;;;;;;;;;;5029229;28;20089;-81
2021/09/21 09:10:15;;;;;;;1.90;0.70;;;;;;;;;;5045328;28;20045;-81
2021/09/21 09:12:41;;;;;;;1.05;0.80;;;;;;;;;;5030922;28;20080;-81
2021/09/21 09:15:12;;;;;;;0.60;0.60;;;;;;;;;;5027846;28;20065;-81
2021/09/21 09:17:39;;;;;;;0.60;0.60;;;;;;;;;;5013107;28;20061;-81
2021/09/21 09:20:07;;;;;;;0.60;0.60;;;;;;;;;;5029856;28;20095;-81
2021/09/21 09:22:33;;;;;;;1.40;0.60;;;;;;;;;;5029643;28;20068;-81
2021/09/21 09:25:02;;;;;;;0.75;0.60;;;;;;;;;;5059456;28;20049;-81
2021/09/21 09:27:39;;;;;;;0.60;0.60;;;;;;;;;;5021273;28;20042;-81
2021/09/21 09:30:10;;;;;;;0.90;0.60;;;;;;;;;;5021774;28;20037;-81
2021/09/21 09:32:53;;;;;;;0.60;0.60;;;;;;;;;;5030588;28;20037;-81
2021/09/21 09:35:31;;;;;;;0.50;0.50;;;;;;;;;;5045121;28;20505;-81
2021/09/21 09:37:59;;;;;;;0.68;0.50;;;;;;;;;;5030270;28;20042;-81
2021/09/21 09:40:27;;;;;;;0.50;0.50;;;;;;;;;;5028110;28;20053;-81
2021/09/21 09:42:54;;;;;;;0.52;0.52;;;;;;;;;;5025968;28;20080;-81
2021/09/21 09:45:29;;;;;;;0.50;0.50;;;;;;;;;;5042259;28;20087;-81
2021/09/21 09:47:57;;;;;;;0.82;0.60;;;;;;;;;;5029887;28;20925;-81
2021/09/21 09:50:26;;;;;;;3.30;0.70;;;;;;;;;;5059600;28;20120;-81
2021/09/21 09:53:06;;;;;;;1.95;0.93;;;;;;;;;;5012077;28;20037;-81
2021/09/21 09:55:33;;;;;;;0.52;0.50;;;;;;;;;;5029335;28;20413;-81
2021/09/21 09:58:01;;;;;;;0.50;0.50;;;;;;;;;;5029354;28;20049;-81
2021/09/21 10:00:28;;;;;;;0.47;0.47;;;;;;;;;;5019968;28;20038;-81
2021/09/21 10:02:55;;;;;;;0.43;0.43;;;;;;;;;;5027544;28;20050;-81
2021/09/21 10:05:22;;;;;;;0.50;0.50;;;;;;;;;;5031289;28;20041;-81
2021/09/21 10:07:49;;;;;;;0.50;0.50;;;;;;;;;;5010698;28;20131;-81
2021/09/21 10:10:16;;;;;;;2.05;0.50;;;;;;;;;;5028462;28;20045;-81
2021/09/21 10:12:43;;;;;;;0.50;0.50;;;;;;;;;;5028921;28;20533;-81
2021/09/21 10:15:11;;;;;;;0.40;0.40;;;;;;;;;;5026622;28;20387;-81
2021/09/21 10:17:47;;;;;;;1.25;0.60;;;;;;;;;;5029903;28;20049;-81
2021/09/21 10:20:14;;;;;;;0.52;0.50;;;;;;;;;;5057778;28;20091;-81
2021/09/21 10:22:41;;;;;;;0.85;0.40;;;;;;;;;;5058618;28;20084;-81
2021/09/21 10:25:08;;;;;;;2.55;0.40;;;;;;;;;;5027249;28;20144;-81
2021/09/21 10:27:37;;;;;;;0.50;0.50;;;;;;;;;;5027560;28;20061;-81
2021/09/21 10:30:08;;;;;;;0.85;0.50;;;;;;;;;;5024779;28;20391;-81
2021/09/21 10:32:48;;;;;;;1.25;0.50;;;;;;;;;;5023896;28;20480;-81
2021/09/21 10:35:19;;;;;;;0.40;0.40;;;;;;;;;;5030749;28;20041;-81
2021/09/21 10:37:55;;;;;;;1.10;0.40;;;;;;;;;;5045938;28;20037;-81
2021/09/21 10:40:32;;;;;;;0.40;0.40;;;;;;;;;;5031116;28;20034;-81
2021/09/21 10:42:59;;;;;;;0.40;0.40;;;;;;;;;;5060864;28;20057;-82
2021/09/21 10:45:26;;;;;;;0.40;0.40;;;;;;;;;;5063276;28;20049;-81
2021/09/21 10:48:03;;;;;;;0.40;0.40;;;;;;;;;;5033857;28;20068;-81
2021/09/21 10:50:36;;;;;;;1.65;0.50;;;;;;;;;;5033572;28;20053;-81
2021/09/21 10:53:04;;;;;;;0.50;0.50;;;;;;;;;;5067478;28;20072;-81
2021/09/21 10:55:35;;;;;;;0.50;0.50;;;;;;;;;;5033491;28;20478;-81
2021/09/21 10:58:04;;;;;;;2.03;0.50;;;;;;;;;;5039078;28;20067;-81
2021/09/21 11:00:34;;;;;;;0.40;0.40;;;;;;;;;;5026593;28;20413;-81
2021/09/21 11:03:01;;;;;;;0.55;0.45;;;;;;;;;;5048178;28;20046;-81
2021/09/21 11:05:28;;;;;;;0.40;0.40;;;;;;;;;;5062881;28;20164;-81
2021/09/21 11:07:57;;;;;;;0.50;0.50;;;;;;;;;;5026640;28;20037;-81
2021/09/21 11:10:53;;;;;;;0.40;0.40;;;;;;;;;;5034903;28;20559;-81
2021/09/21 11:13:23;;;;;;;0.40;0.40;;;;;;;;;;5036215;28;20057;-81
2021/09/21 11:15:50;;;;;;;1.17;0.43;;;;;;;;;;5035292;28;20072;-81
2021/09/21 11:18:19;;;;;;;0.40;0.40;;;;;;;;;;5016476;28;20053;-81
2021/09/21 11:21:06;;;;;;;0.40;0.40;;;;;;;;;;5049330;28;20034;-81
2021/09/21 11:23:34;;;;;;;0.40;0.40;;;;;;;;;;5022018;28;20033;-82
2021/09/21 11:26:05;;;;;;;1.17;0.30;;;;;;;;;;5036731;28;20128;-82
2021/09/21 11:28:32;;;;;;;0.65;0.40;;;;;;;;;;5035552;28;20041;-82
2021/09/21 11:31:00;;;;;;;0.65;0.30;;;;;;;;;;5020943;28;20099;-81
2021/09/21 11:33:29;;;;;;;1.50;0.50;;;;;;;;;;5047601;28;20044;-81
2021/09/21 11:36:05;;;;;;;0.40;0.40;;;;;;;;;;5030785;28;20120;-81
2021/09/21 11:38:33;;;;;;;1.77;0.40;;;;;;;;;;5038446;28;20065;-80
2021/09/21 11:41:01;;;;;;;0.40;0.40;;;;;;;;;;5036712;28;20448;-80
2021/09/21 11:43:29;;;;;;;1.08;0.40;;;;;;;;;;5034205;28;20129;-80
2021/09/21 11:45:56;;;;;;;0.73;0.40;;;;;;;;;;5031581;28;20092;-80
2021/09/21 11:48:24;;;;;;;0.30;0.30;;;;;;;;;;5030405;28;20114;-81
2021/09/21 11:50:52;;;;;;;0.30;0.30;;;;;;;;;;5029584;28;20038;-81
2021/09/21 11:53:20;;;;;;;0.38;0.38;;;;;;;;;;5030105;28;20398;-81
2021/09/21 11:55:50;;;;;;;0.40;0.40;;;;;;;;;;5062454;28;20033;-81
2021/09/21 11:58:17;;;;;;;1.27;0.30;;;;;;;;;;5012333;28;20088;-81
2021/09/21 12:00:51;;;;;;;1.85;0.40;;;;;;;;;;5026951;28;20034;-81
2021/09/21 12:03:20;;;;;;;0.82;0.40;;;;;;;;;;5064427;28;20041;-81
2021/09/21 12:05:50;;;;;;;0.40;0.40;;;;;;;;;;5029819;28;20545;-81
2021/09/21 12:08:18;;;;;;;0.40;0.40;;;;;;;;;;5045723;28;20103;-81
2021/09/21 12:10:50;;;;;;;0.40;0.40;;;;;;;;;;5030658;28;20091;-81
2021/09/21 12:13:18;;;;;;;0.85;0.40;;;;;;;;;;5061433;28;20034;-81
2021/09/21 12:15:47;;;;;;;0.40;0.40;;;;;;;;;;5028988;28;20125;-81
2021/09/21 12:18:14;;;;;;;0.40;0.40;;;;;;;;;;5060454;28;20446;-81
2021/09/21 12:20:42;;;;;;;0.40;0.40;;;;;;;;;;5031769;28;20048;-81
2021/09/21 12:23:10;;;;;;;0.30;0.30;;;;;;;;;;5030569;28;20141;-81
2021/09/21 12:25:40;;;;;;;0.30;0.30;;;;;;;;;;5031030;28;20041;-81
2021/09/21 12:28:08;;;;;;;1.85;0.40;;;;;;;;;;5024128;28;20054;-81
2021/09/21 12:30:44;;;;;;;0.30;0.30;;;;;;;;;;5031487;28;20045;-81
2021/09/21 12:33:12;;;;;;;1.15;0.40;;;;;;;;;;5030532;28;20633;-81
2021/09/21 12:35:43;;;;;;;1.60;0.40;;;;;;;;;;5031741;28;20050;-81
2021/09/21 12:38:11;;;;;;;0.30;0.30;;;;;;;;;;5028064;28;20044;-80
2021/09/21 12:40:53;;;;;;;1.08;0.40;;;;;;;;;;5030689;28;20421;-80
2021/09/21 12:43:21;;;;;;;0.30;0.30;;;;;;;;;;5027939;28;20119;-80
2021/09/21 12:45:49;;;;;;;0.30;0.30;;;;;;;;;;5029258;28;20108;-79
2021/09/21 12:48:20;;;;;;;1.20;0.25;;;;;;;;;;5030005;28;20099;-80
2021/09/21 12:50:51;;;;;;;0.30;0.30;;;;;;;;;;5029908;28;20128;-80
2021/09/21 12:53:21;;;;;;;0.30;0.30;;;;;;;;;;5029890;28;20038;-80
2021/09/21 12:55:55;;;;;;;0.85;0.30;;;;;;;;;;5024173;28;20068;-80
2021/09/21 12:58:23;;;;;;;1.55;0.30;;;;;;;;;;5029471;28;20083;-80
2021/09/21 13:00:52;;;;;;;0.30;0.30;;;;;;;;;;5061764;28;20052;-80
2021/09/21 13:03:20;;;;;;;0.30;0.30;;;;;;;;;;5028367;28;20119;-80
2021/09/21 13:05:47;;;;;;;0.30;0.30;;;;;;;;;;5029455;28;20049;-80
2021/09/21 13:08:14;;;;;;;0.30;0.30;;;;;;;;;;5027037;28;20108;-80
2021/09/21 13:10:40;;;;;;;0.30;0.30;;;;;;;;;;5030028;28;20049;-80
2021/09/21 13:13:07;;;;;;;0.63;0.30;;;;;;;;;;5060806;28;20048;-80
2021/09/21 13:15:34;;;;;;;0.30;0.30;;;;;;;;;;5028492;28;20045;-80
2021/09/21 13:18:02;;;;;;;1.63;0.40;;;;;;;;;;5028657;28;20052;-80
2021/09/21 13:20:30;;;;;;;0.40;0.40;;;;;;;;;;5030434;28;20041;-80
2021/09/21 13:22:56;;;;;;;0.40;0.40;;;;;;;;;;5028993;28;20076;-80
2021/09/21 13:25:24;;;;;;;0.40;0.40;;;;;;;;;;5028992;28;20465;-80
2021/09/21 13:27:51;;;;;;;0.40;0.40;;;;;;;;;;5029460;28;20072;-80
2021/09/21 13:30:18;;;;;;;0.40;0.40;;;;;;;;;;5029451;28;20064;-80
2021/09/21 13:32:45;;;;;;;0.40;0.40;;;;;;;;;;5029672;28;20072;-79
2021/09/21 13:35:13;;;;;;;0.40;0.40;;;;;;;;;;5061726;28;20037;-80
2021/09/21 13:37:40;;;;;;;0.40;0.40;;;;;;;;;;5028940;28;20064;-79
2021/09/21 13:40:21;;;;;;;0.40;0.40;;;;;;;;;;5029102;28;20067;-80
2021/09/21 13:42:49;;;;;;;0.40;0.40;;;;;;;;;;5011736;28;20045;-80
2021/09/21 13:45:16;;;;;;;0.40;0.40;;;;;;;;;;5029348;28;20057;-80
2021/09/21 13:47:44;;;;;;;0.32;0.32;;;;;;;;;;5026484;28;20088;-80
2021/09/21 13:50:12;;;;;;;0.40;0.40;;;;;;;;;;5022751;28;20068;-80
2021/09/21 13:52:39;;;;;;;0.52;0.40;;;;;;;;;;5028466;28;20423;-80
2021/09/21 13:55:06;;;;;;;0.30;0.30;;;;;;;;;;5042131;28;20390;-80
2021/09/21 13:57:33;;;;;;;0.40;0.40;;;;;;;;;;5055580;28;20054;-80
2021/09/21 14:00:00;;;;;;;0.30;0.30;;;;;;;;;;5029861;28;20076;-80
2021/09/21 14:02:27;;;;;;;0.40;0.40;;;;;;;;;;5028101;28;20108;-80
2021/09/21 14:04:54;;;;;;;0.30;0.30;;;;;;;;;;5011863;28;20451;-80
2021/09/21 14:07:20;;;;;;;0.38;0.38;;;;;;;;;;5029474;28;20049;-80
2021/09/21 14:09:49;;;;;;;0.30;0.30;;;;;;;;;;5044414;28;20136;-80
2021/09/21 14:12:16;;;;;;;2.50;0.30;;;;;;;;;;5028841;28;20081;-80
2021/09/21 14:14:43;;;;;;;1.98;0.30;;;;;;;;;;5029451;28;20069;-80
2021/09/21 14:17:09;;;;;;;0.40;0.40;;;;;;;;;;5062675;28;20037;-80
2021/09/21 14:19:37;;;;;;;0.40;0.40;;;;;;;;;;5028517;28;20046;-80
2021/09/21 14:22:04;;;;;;;0.40;0.40;;;;;;;;;;5061139;28;20756;-80
2021/09/21 14:24:32;;;;;;;0.65;0.40;;;;;;;;;;5030375;28;20049;-80
2021/09/21 14:27:02;;;;;;;0.85;0.85;;;;;;;;;;5012754;28;20457;-80
2021/09/21 14:29:29;;;;;;;0.38;0.38;;;;;;;;;;5059464;28;20112;-80
2021/09/21 14:31:56;;;;;;;0.63;0.40;;;;;;;;;;5028899;28;20059;-80
2021/09/21 14:34:23;;;;;;;0.43;0.40;;;;;;;;;;5060014;28;20140;-80
2021/09/21 14:36:50;;;;;;;0.57;0.40;;;;;;;;;;5029492;28;20043;-80
2021/09/21 14:39:17;;;;;;;0.40;0.40;;;;;;;;;;5022728;28;20034;-80
2021/09/21 14:41:44;;;;;;;0.40;0.40;;;;;;;;;;5026847;28;20037;-80
2021/09/21 14:44:11;;;;;;;0.40;0.40;;;;;;;;;;5029882;28;20433;-80
2021/09/21 14:46:40;;;;;;;0.40;0.40;;;;;;;;;;5028372;28;20080;-80
2021/09/21 14:49:08;;;;;;;0.40;0.40;;;;;;;;;;5031578;28;20141;-79
2021/09/21 14:51:35;;;;;;;0.40;0.40;;;;;;;;;;5039742;28;20046;-80
2021/09/21 14:54:04;;;;;;;0.50;0.50;;;;;;;;;;5032870;28;20033;-80
2021/09/21 14:56:31;;;;;;;0.40;0.40;;;;;;;;;;5030782;28;20363;-80